Ashford, Washington
Current Conditions -  °F | °C
As of 12:58 AM on Saturday 20 Dec 2014 (Local Time) from KGRF Reporting Station
Drizzle Drizzle  
Wind Chill: 45°   Ceiling: 3300
Heat Index: 45°   Visibility: 10mi
Dew Point: 43°   Wind: 3mph
Humidity: 94%   Direction: 140°SE
Pressure: 29.82"   Gusts: NA
Location:  46.76°N, 122.03°W
Report Text: KGRF 200858Z 14003KT 10SM -DZ OVC033 07/06 A2982 RMK AO2A WND DATA ESTMD UPB02E03DZB03 SLP103 P0001 60003 T00700061 58016 $
Loading
Personal Weather Stations






























Interactive Weather Map New forecast layout! Learn more

10-Day Weather Forecast

Advertisements
Track Severe Weather on mobile